Nearby METAR Reports



KADS - Dallas/Addison, Texas, USA
Distance from station: SSW 10mi, 16km
Updated: Sun, 11-Apr-2021 10:35pm CDT
Clear
Clear
 Wind from SE
Wind: SE 9 mph , 15 km/h
Temperature: 72°F , 22°C
Dew Point: 41°F , 5°C
Humidity: 33%
Barometer: 29.71 inHg , 1006.1 hPa
Clouds: Clear
Visibility: 10 miles , 16 km
2021/04/12 03:35 KADS 120335Z AUTO 14008KT 10SM CLR 22/05 A2971 RMK AO2 T02230049
KTKI - Mckinney, Texas, USA
Distance from station: ENE 11mi, 18km
Updated: Sun, 11-Apr-2021 9:53pm CDT
Clear
Clear
 Wind from SE
Wind: SE 8 mph , 13 km/h
Temperature: 66°F , 19°C
Dew Point: 46°F , 8°C
Humidity: 49%
Barometer: 29.68 inHg , 1005.1 hPa
Clouds: Clear
Visibility: 10 miles , 16 km
2021/04/12 02:53 KTKI 120253Z AUTO 14007KT 10SM CLR 19/08 A2968 RMK AO2 SLP051 T01940078 53012
 
KDAL - Dallas/Love Fld, Texas, USA
Distance from station: SSW 18mi, 30km
Updated: Sun, 11-Apr-2021 9:53pm CDT
Few Clouds
Few Clouds
 Wind from SE
Wind: SE 12 mph , 19 km/h
Temperature: 75°F , 24°C
Dew Point: 39°F , 4°C
Humidity: 27%
Barometer: 29.67 inHg , 1004.7 hPa
Clouds: Few Clouds
Visibility: 10 miles , 16 km
Cloud details: Few Clouds 25000 ft
2021/04/12 02:53 KDAL 120253Z 13010KT 10SM FEW250 24/04 A2967 RMK AO2 SLP042 T02440044 53009 $
KDFW - Dallas/Ft Worth, Texas, USA
Distance from station: SW 21mi, 34km
Updated: Sun, 11-Apr-2021 9:53pm CDT
Mostly cloudy
Mostly cloudy
 Wind from SSE
Wind: SSE 7 mph , 11 km/h
Temperature: 72°F , 22°C
Dew Point: 41°F , 5°C
Humidity: 33%
Barometer: 29.66 inHg , 1004.4 hPa
Clouds: Mostly cloudy
Visibility: 10 miles , 16 km
Cloud details: Mostly cloudy 25000 ft
2021/04/12 02:53 KDFW 120253Z 16006KT 10SM BKN250 22/05 A2966 RMK AO2 SLP036 T02170050 53010
 
KF46 - Rockwall, Texas, USA
Distance from station: ESE 22mi, 35km
Updated: Sun, 11-Apr-2021 10:35pm CDT
Clear
Clear
 Wind from SSE
Wind: SSE 8 mph , 13 km/h
Temperature: 70°F , 21°C
Dew Point: 41°F , 5°C
Humidity: 35%
Barometer: 29.70 inHg , 1005.8 hPa
Clouds: Clear
Visibility: 10 miles , 16 km
2021/04/12 03:35 KF46 120335Z AUTO 16007KT 10SM CLR 21/05 A2970 RMK AO2 T02050052
KDTO - Denton, Texas, USA
Distance from station: WNW 27mi, 43km
Updated: Sun, 11-Apr-2021 9:53pm CDT
Clear
Clear
 Wind from SSE
Wind: SSE 7 mph , 11 km/h
Temperature: 72°F , 22°C
Dew Point: 41°F , 5°C
Humidity: 33%
Barometer: 29.67 inHg , 1004.7 hPa
Clouds: Clear
Visibility: 10 miles , 16 km
2021/04/12 02:53 KDTO 120253Z AUTO 15006KT 10SM CLR 22/05 A2967 RMK AO2 SLP040 T02170050 53012
 
KHQZ - Mesquite, Texas, USA
Distance from station: SSE 28mi, 44km
Updated: Sun, 11-Apr-2021 10:35pm CDT
Clear
Clear
 Wind from SSE
Wind: SSE 7 mph , 11 km/h
Temperature: 66°F , 19°C
Dew Point: 41°F , 5°C
Humidity: 40%
Barometer: 29.70 inHg , 1005.8 hPa
Clouds: Clear
Visibility: 10 miles , 16 km
2021/04/12 03:35 KHQZ 120335Z AUTO 15006KT 10SM CLR 19/05 A2970 RMK AO1 T01920045
KRBD - Dallas/Redbird, Texas, USA
Distance from station: SSW 30mi, 48km
Updated: Sun, 11-Apr-2021 9:53pm CDT
Clear
Clear
 Wind from SSE
Wind: SSE 8 mph , 13 km/h
Temperature: 72°F , 22°C
Dew Point: 43°F , 6°C
Humidity: 36%
Barometer: 29.67 inHg , 1004.7 hPa
Clouds: Clear
Visibility: 10 miles , 16 km
2021/04/12 02:53 KRBD 120253Z AUTO 15007KT 10SM CLR 22/06 A2967 RMK AO2 SLP041 T02220061 53008
 
KGPM - Grand Prairie, Texas, USA
Distance from station: SSW 33mi, 53km
Updated: Sun, 11-Apr-2021 10:35pm CDT
Clear
Clear
 Wind from SE
Wind: SE 6 mph , 9 km/h
Temperature: 72°F , 22°C
Dew Point: 41°F , 5°C
Humidity: 33%
Barometer: 29.70 inHg , 1005.8 hPa
Clouds: Clear
Visibility: 10 miles , 16 km
2021/04/12 03:35 KGPM 120335Z AUTO 13005KT 10SM CLR 22/05 A2970 RMK AO2 T02220049
KAFW - Ft Worth/Allianc, Texas, USA
Distance from station: WSW 34mi, 55km
Updated: Sun, 11-Apr-2021 9:53pm CDT
Partly cloudy
Partly cloudy
 Wind from SSE
Wind: SSE 9 mph , 15 km/h
Temperature: 73°F , 23°C
Dew Point: 43°F , 6°C
Humidity: 33%
Barometer: 29.66 inHg , 1004.4 hPa
Clouds: Partly cloudy
Visibility: 10 miles , 16 km
Cloud details: Partly cloudy 30000 ft
2021/04/12 02:53 KAFW 120253Z 16008KT 10SM SCT300 23/06 A2966 RMK AO2 SLP035 T02280061 53013 $
 
KLNC - Lancaster, Texas, USA
Distance from station: S 36mi, 58km
Updated: Sun, 11-Apr-2021 10:35pm CDT
Clear
Clear
 Wind from SE
Wind: SE 3 mph , 6 km/h
Temperature: 66°F , 19°C
Dew Point: 45°F , 7°C
Humidity: 46%
Barometer: 29.71 inHg , 1006.1 hPa
Clouds: Clear
Visibility: 10 miles , 16 km
2021/04/12 03:35 KLNC 120335Z AUTO 14003KT 10SM CLR 19/07 A2971 RMK AO2 T01860065
KGKY - Arlington, Texas, USA
Distance from station: SSW 36mi, 59km
Updated: Sun, 11-Apr-2021 9:53pm CDT
Clear
Clear
 Wind from ESE
Wind: ESE 6 mph , 9 km/h
Temperature: 73°F , 23°C
Dew Point: 43°F , 6°C
Humidity: 33%
Barometer: 29.68 inHg , 1005.1 hPa
Clouds: Clear
Visibility: 10 miles , 16 km
2021/04/12 02:53 KGKY 120253Z AUTO 12005KT 10SM CLR 23/06 A2968 RMK AO2 SLP041 T02280056 53010
 
KTRL - Terrell, Texas, USA
Distance from station: SE 39mi, 63km
Updated: Sun, 11-Apr-2021 9:53pm CDT
Clear
Clear
 Wind from SE
Wind: SE 8 mph , 13 km/h
Temperature: 68°F , 20°C
Dew Point: 41°F , 5°C
Humidity: 38%
Barometer: 29.70 inHg , 1005.8 hPa
Clouds: Clear
Visibility: 10 miles , 16 km
2021/04/12 02:53 KTRL 120253Z AUTO 14007KT 10SM CLR 20/05 A2970 RMK AO2 SLP051 T02000050 53010
KGVT - Greenville/Major, Texas, USA
Distance from station: E 40mi, 64km
Updated: Sun, 11-Apr-2021 10:15pm CDT
Clear
Clear
 Wind from SE
Wind: SE 7 mph , 11 km/h
Temperature: 59°F , 15°C
Dew Point: 45°F , 7°C
Humidity: 59%
Barometer: 29.71 inHg , 1006.1 hPa
Clouds: Clear
Visibility: 10 miles , 16 km
2021/04/12 03:15 KGVT 120315Z AUTO 13006KT 10SM CLR 15/07 A2971 RMK AO2 TSNO T01530072
 
KFTW - Fort Worth, Texas, USA
Distance from station: WSW 40mi, 65km
Updated: Sun, 11-Apr-2021 9:53pm CDT
Clear
Clear
 Wind from SE
Wind: SE 10 mph , 17 km/h
Temperature: 72°F , 22°C
Dew Point: 43°F , 6°C
Humidity: 36%
Barometer: 29.66 inHg , 1004.4 hPa
Clouds: Clear
Visibility: 10 miles , 16 km
2021/04/12 02:53 KFTW 120253Z 13009KT 10SM CLR 22/06 A2966 RMK AO2 SLP038 T02220061 53013 $
KGYI - Sherman/Denison, Texas, USA
Distance from station: N 43mi, 69km
Updated: Sun, 11-Apr-2021 10:35pm CDT
Clear
Clear
 Wind from SSE
Wind: SSE 9 mph , 15 km/h
Temperature: 66°F , 19°C
Dew Point: 41°F , 5°C
Humidity: 40%
Barometer: 29.71 inHg , 1006.1 hPa
Clouds: Clear
Visibility: 10 miles , 16 km
2021/04/12 03:35 KGYI 120335Z AUTO 15008KT 10SM CLR 19/05 A2971 RMK AO2 T01930052
 
KNFW - Fort Worth Nas, Texas, USA
Distance from station: WSW 45mi, 73km
Updated: Sun, 11-Apr-2021 9:52pm CDT
Clear
Clear
 Wind from SE
Wind: SE 9 mph , 15 km/h
Temperature: 75°F , 24°C
Dew Point: 43°F , 6°C
Humidity: 31%
Barometer: 29.67 inHg , 1004.7 hPa
Clouds: Clear
Visibility: 10 miles , 16 km
2021/04/12 02:52 KNFW 120252Z AUTO 14008KT 10SM CLR 24/06 A2967 RMK AO2 SLP032 T02440061 53013 TSNO $
KGLE - Gainesville, Texas, USA
Distance from station: NW 46mi, 74km
Updated: Sun, 11-Apr-2021 10:15pm CDT
Clear
Clear
 Wind from S
Wind: S 5 mph , 7 km/h
Temperature: 64°F , 18°C
Dew Point: 43°F , 6°C
Humidity: 46%
Barometer: 29.71 inHg , 1006.1 hPa
Clouds: Clear
Visibility: 10 miles , 16 km
2021/04/12 03:15 KGLE 120315Z AUTO 17004KT 10SM CLR 18/06 A2971 RMK AO2 T01770059
 
KJWY - Midlothian/Wax, Texas, USA
Distance from station: SSW 46mi, 74km
Updated: Sun, 11-Apr-2021 10:35pm CDT
Clear
Clear
 Wind from SSE
Wind: SSE 6 mph , 9 km/h
Temperature: 66°F , 19°C
Dew Point: 46°F , 8°C
Humidity: 49%
Barometer: 29.71 inHg , 1006.1 hPa
Clouds: Clear
Visibility: 10 miles , 16 km
2021/04/12 03:35 KJWY 120335Z AUTO 15005KT 10SM CLR 19/08 A2971 RMK AO2 T01930080
KFWS - Fort Worth/88d, Texas, USA
Distance from station: SW 49mi, 79km
Updated: Sun, 11-Apr-2021 10:35pm CDT
Clear
Clear
 Wind from ESE
Wind: ESE 6 mph , 9 km/h
Temperature: 68°F , 20°C
Dew Point: 43°F , 6°C
Humidity: 40%
Barometer: 29.70 inHg , 1005.8 hPa
Clouds: Clear
Visibility: 10 miles , 16 km
2021/04/12 03:35 KFWS 120335Z AUTO 12005KT 10SM CLR 20/06 A2970 RMK AO2 T01980065